Time;durP1;ratioP1;P1;durP2;ratioP2;P2;SDS_P1;SDS_P2;PMS_P1;PMS_P2;Temp;Humidity;BMP_temperature;BMP_pressure;BME280_temperature;BME280_humidity;BME280_pressure;Samples;Min_cycle;Max_cycle;Signal;HPM_P1;HPM_P2
2023/07/24 00:01:25;;;;;;;5.40;3.70;;;25.10;49.70;;;;;;6162473;27;80523;-61
2023/07/24 00:04:25;;;;;;;4.55;3.60;;;25.10;49.60;;;;;;6164670;27;82660;-62
2023/07/24 00:07:26;;;;;;;7.47;4.28;;;25.10;49.50;;;;;;6166975;27;80166;-62
2023/07/24 00:10:26;;;;;;;6.40;3.70;;;25.10;49.70;;;;;;6169046;27;80830;-62
2023/07/24 00:13:27;;;;;;;7.25;3.75;;;25.10;49.80;;;;;;6157542;27;81603;-62
2023/07/24 00:16:27;;;;;;;5.57;3.47;;;25.10;49.70;;;;;;6192721;27;80519;-58
2023/07/24 00:19:28;;;;;;;5.90;4.00;;;25.10;50.70;;;;;;6154327;27;80904;-58
2023/07/24 00:22:28;;;;;;;6.70;3.60;;;25.20;50.00;;;;;;6154408;27;80422;-58
2023/07/24 00:25:29;;;;;;;6.50;3.97;;;25.30;50.00;;;;;;6150732;27;80708;-57
2023/07/24 00:28:29;;;;;;;6.97;4.38;;;25.40;50.20;;;;;;6151917;27;81125;-56
2023/07/24 00:31:30;;;;;;;5.28;3.65;;;25.50;50.20;;;;;;6151335;27;87323;-57
2023/07/24 00:34:30;;;;;;;7.55;4.05;;;25.60;50.50;;;;;;6139571;27;82082;-62
2023/07/24 00:37:31;;;;;;;6.20;3.92;;;25.70;50.70;;;;;;6153959;27;80269;-62
2023/07/24 00:40:31;;;;;;;6.60;4.00;;;25.70;50.80;;;;;;6153515;27;80949;-62
2023/07/24 00:43:32;;;;;;;8.13;3.65;;;25.70;50.90;;;;;;6149760;27;81479;-63
2023/07/24 00:46:32;;;;;;;5.85;4.05;;;25.70;50.90;;;;;;6165427;27;82200;-62
2023/07/24 00:49:33;;;;;;;8.35;3.80;;;25.70;50.80;;;;;;6169129;27;85003;-62
2023/07/24 00:52:33;;;;;;;5.18;3.80;;;25.70;50.90;;;;;;6187337;27;80527;-63
2023/07/24 00:55:34;;;;;;;7.07;3.83;;;25.80;51.10;;;;;;6159266;27;82008;-63
2023/07/24 00:58:34;;;;;;;7.13;4.20;;;25.80;50.80;;;;;;6165405;27;81947;-63
2023/07/24 01:01:35;;;;;;;9.07;4.05;;;25.80;50.70;;;;;;6140742;27;81891;-64
2023/07/24 01:04:35;;;;;;;6.40;4.30;;;25.90;50.70;;;;;;6171231;27;83859;-62
2023/07/24 01:07:36;;;;;;;6.15;4.03;;;25.90;50.70;;;;;;6160353;27;82169;-62
2023/07/24 01:10:37;;;;;;;5.40;3.83;;;25.90;50.90;;;;;;6167679;27;83609;-61
2023/07/24 01:13:38;;;;;;;5.22;4.15;;;25.80;51.20;;;;;;6166486;27;82156;-58
2023/07/24 01:16:39;;;;;;;6.30;4.15;;;25.80;51.70;;;;;;6151759;27;81711;-57
2023/07/24 01:19:39;;;;;;;5.28;4.20;;;25.80;51.80;;;;;;6160062;27;80795;-58
2023/07/24 01:22:40;;;;;;;7.10;4.38;;;25.80;51.90;;;;;;6147564;27;81025;-58
2023/07/24 01:25:41;;;;;;;5.72;4.18;;;25.80;52.00;;;;;;6164498;27;80359;-57
2023/07/24 01:28:42;;;;;;;5.82;4.22;;;25.80;52.00;;;;;;6163972;27;81097;-57
2023/07/24 01:31:42;;;;;;;6.63;4.40;;;25.80;52.00;;;;;;6167632;27;80626;-62
2023/07/24 01:34:43;;;;;;;6.57;4.35;;;25.80;51.90;;;;;;6166661;27;81160;-63
2023/07/24 01:37:43;;;;;;;6.47;4.28;;;25.60;51.50;;;;;;6164165;27;81266;-62
2023/07/24 01:40:44;;;;;;;6.18;4.20;;;25.40;51.60;;;;;;6165042;27;80844;-62
2023/07/24 01:43:44;;;;;;;6.00;3.85;;;25.10;51.90;;;;;;6161600;27;82563;-61
2023/07/24 01:46:45;;;;;;;6.32;4.47;;;25.00;52.20;;;;;;6147999;27;81761;-61
2023/07/24 01:49:45;;;;;;;6.93;3.83;;;24.90;52.80;;;;;;6146513;27;80580;-61
2023/07/24 01:52:46;;;;;;;5.88;4.05;;;24.80;53.10;;;;;;6163650;27;81822;-62
2023/07/24 01:55:46;;;;;;;9.07;4.10;;;24.70;53.60;;;;;;6164726;27;82173;-60
2023/07/24 01:58:47;;;;;;;6.65;4.35;;;24.60;53.90;;;;;;6140581;27;83545;-63
2023/07/24 02:01:48;;;;;;;6.82;4.32;;;24.60;54.20;;;;;;6165595;27;83136;-64
2023/07/24 02:04:49;;;;;;;6.03;4.28;;;24.60;54.40;;;;;;6165006;27;81939;-62
2023/07/24 02:07:51;;;;;;;6.88;4.18;;;24.60;54.50;;;;;;6158941;27;80501;-60
2023/07/24 02:10:51;;;;;;;8.00;4.40;;;24.60;54.50;;;;;;6154932;27;82813;-60
2023/07/24 02:13:52;;;;;;;12.35;4.75;;;24.70;54.70;;;;;;6164809;27;88730;-62
2023/07/24 02:16:53;;;;;;;6.20;4.25;;;24.70;54.60;;;;;;6164977;27;84335;-61
2023/07/24 02:19:54;;;;;;;5.25;4.10;;;25.00;54.10;;;;;;6159135;27;81276;-62
2023/07/24 02:22:55;;;;;;;6.50;4.22;;;25.10;54.90;;;;;;6161996;27;80418;-61
2023/07/24 02:25:55;;;;;;;6.78;4.40;;;25.20;54.00;;;;;;6156072;27;81029;-61
2023/07/24 02:28:56;;;;;;;7.78;4.55;;;25.30;54.10;;;;;;6157080;27;80584;-61
2023/07/24 02:31:57;;;;;;;7.05;4.68;;;25.40;54.00;;;;;;6167462;27;82455;-60
2023/07/24 02:34:57;;;;;;;7.15;4.50;;;25.50;53.90;;;;;;6172895;27;83436;-62
2023/07/24 02:37:58;;;;;;;8.38;4.60;;;25.50;53.80;;;;;;6176371;27;80226;-63
2023/07/24 02:40:58;;;;;;;6.35;4.75;;;25.60;53.60;;;;;;6154095;27;81314;-61
2023/07/24 02:43:59;;;;;;;7.28;4.75;;;25.60;53.50;;;;;;6170801;27;81709;-55
2023/07/24 02:46:59;;;;;;;7.53;4.47;;;25.60;54.30;;;;;;6154355;27;80223;-57
2023/07/24 02:50:00;;;;;;;12.80;4.50;;;25.60;53.60;;;;;;6174969;27;81001;-57
2023/07/24 02:53:00;;;;;;;6.13;4.60;;;25.60;53.60;;;;;;6156209;27;81835;-57
2023/07/24 02:56:02;;;;;;;6.05;4.65;;;25.60;53.70;;;;;;6162736;27;81004;-57
2023/07/24 02:59:02;;;;;;;7.13;4.47;;;25.70;53.60;;;;;;6170183;27;81888;-55
2023/07/24 03:02:03;;;;;;;8.95;4.95;;;25.40;53.60;;;;;;6153026;27;83616;-60
2023/07/24 03:05:03;;;;;;;5.65;3.95;;;25.20;54.10;;;;;;6170265;27;83004;-61
2023/07/24 03:08:04;;;;;;;6.78;4.63;;;25.00;54.60;;;;;;6146675;27;83495;-59
2023/07/24 03:11:05;;;;;;;5.43;4.07;;;24.90;55.10;;;;;;6155813;27;80528;-58
2023/07/24 03:14:05;;;;;;;7.63;4.57;;;24.80;55.30;;;;;;6141672;27;83882;-59
2023/07/24 03:17:06;;;;;;;7.13;4.35;;;24.80;55.50;;;;;;6178471;27;83635;-59
2023/07/24 03:20:06;;;;;;;5.38;3.95;;;24.70;55.90;;;;;;6163064;27;82340;-57
2023/07/24 03:23:07;;;;;;;6.60;4.43;;;24.70;56.30;;;;;;6165772;27;81136;-59
2023/07/24 03:26:07;;;;;;;8.32;4.03;;;24.80;56.10;;;;;;6174688;27;80966;-58
2023/07/24 03:29:08;;;;;;;8.35;3.70;;;25.00;55.70;;;;;;6153625;27;82046;-59
2023/07/24 03:32:08;;;;;;;8.30;4.95;;;25.20;55.50;;;;;;6163196;27;80305;-58
2023/07/24 03:35:09;;;;;;;7.35;4.60;;;25.30;55.30;;;;;;6152401;27;82858;-58
2023/07/24 03:38:09;;;;;;;7.30;4.15;;;25.40;55.00;;;;;;6154198;27;83212;-58
2023/07/24 03:41:10;;;;;;;7.45;4.35;;;25.50;54.90;;;;;;6154973;27;88646;-60
2023/07/24 03:44:10;;;;;;;6.07;4.25;;;25.50;54.70;;;;;;6140787;27;81987;-58
2023/07/24 03:47:11;;;;;;;6.80;4.35;;;25.60;54.70;;;;;;6163665;27;80346;-59
2023/07/24 03:50:12;;;;;;;10.57;4.68;;;25.60;54.80;;;;;;6153736;27;82459;-59
2023/07/24 03:53:12;;;;;;;7.10;4.30;;;25.70;54.80;;;;;;6153165;27;80569;-59
2023/07/24 03:56:13;;;;;;;6.63;4.38;;;25.70;55.10;;;;;;6142710;27;81751;-56
2023/07/24 03:59:13;;;;;;;6.80;4.30;;;25.70;54.80;;;;;;6150534;27;80381;-64
2023/07/24 04:02:14;;;;;;;5.88;4.47;;;25.70;54.90;;;;;;6151115;27;81246;-64
2023/07/24 04:05:14;;;;;;;6.60;4.40;;;25.70;55.00;;;;;;6144494;27;81423;-61
2023/07/24 04:08:15;;;;;;;9.18;5.38;;;25.80;55.20;;;;;;6154068;27;87120;-63
2023/07/24 04:11:15;;;;;;;6.55;4.55;;;25.80;55.00;;;;;;6140571;27;80891;-62
2023/07/24 04:14:16;;;;;;;7.68;4.45;;;25.80;55.00;;;;;;6162637;27;81238;-62
2023/07/24 04:17:16;;;;;;;8.27;4.70;;;25.80;54.90;;;;;;6149638;27;80468;-58
2023/07/24 04:20:17;;;;;;;7.50;5.00;;;25.80;55.00;;;;;;6173595;27;83597;-58
2023/07/24 04:23:18;;;;;;;5.82;4.30;;;25.80;55.00;;;;;;6179749;27;80698;-58
2023/07/24 04:26:18;;;;;;;9.70;5.00;;;25.80;55.10;;;;;;6149750;27;80811;-59
2023/07/24 04:29:23;;;;;;;6.85;4.65;;;25.70;55.40;;;;;;6155810;27;80581;-58
2023/07/24 04:32:23;;;;;;;11.68;4.75;;;25.80;55.40;;;;;;6150649;27;83103;-59
2023/07/24 04:35:24;;;;;;;10.73;4.85;;;25.70;55.40;;;;;;6155859;27;82135;-58
2023/07/24 04:38:25;;;;;;;8.32;4.10;;;25.70;55.80;;;;;;6162968;27;82932;-59
2023/07/24 04:41:25;;;;;;;6.28;3.85;;;25.60;56.20;;;;;;6181517;27;80539;-58
2023/07/24 04:44:26;;;;;;;6.88;4.53;;;25.50;56.40;;;;;;6166049;27;80893;-59
2023/07/24 04:47:26;;;;;;;8.82;4.82;;;25.50;56.80;;;;;;6165114;27;82836;-59
2023/07/24 04:50:27;;;;;;;9.25;5.05;;;25.40;57.40;;;;;;6170730;27;80781;-59
2023/07/24 04:53:27;;;;;;;7.07;4.18;;;25.40;57.60;;;;;;6160416;27;81434;-63
2023/07/24 04:56:28;;;;;;;7.97;5.05;;;25.50;57.40;;;;;;6171069;27;80071;-63
2023/07/24 04:59:28;;;;;;;7.35;4.65;;;25.60;57.40;;;;;;6144125;27;80838;-62
2023/07/24 05:02:29;;;;;;;8.23;5.18;;;25.70;57.40;;;;;;6160414;27;80559;-64
2023/07/24 05:05:31;;;;;;;6.97;4.70;;;25.60;57.90;;;;;;6159176;27;82219;-62
2023/07/24 05:08:31;;;;;;;8.48;4.85;;;25.70;57.70;;;;;;6155287;27;82747;-64
2023/07/24 05:11:32;;;;;;;7.03;4.38;;;25.70;57.70;;;;;;6154839;27;81585;-60
2023/07/24 05:14:32;;;;;;;10.95;4.22;;;25.80;57.60;;;;;;6156394;27;81545;-60
2023/07/24 05:17:33;;;;;;;6.45;4.40;;;25.90;57.80;;;;;;6164190;27;81428;-62
2023/07/24 05:20:33;;;;;;;6.95;4.47;;;25.90;58.10;;;;;;6160033;27;80469;-59
2023/07/24 05:23:34;;;;;;;9.82;4.80;;;25.90;57.70;;;;;;6163574;27;80594;-60
2023/07/24 05:26:35;;;;;;;9.27;5.88;;;25.90;58.60;;;;;;6173799;27;83889;-61
2023/07/24 05:29:35;;;;;;;8.07;5.00;;;25.90;59.10;;;;;;6149004;27;80710;-60
2023/07/24 05:32:36;;;;;;;8.63;5.18;;;25.90;59.70;;;;;;6155568;27;89244;-60
2023/07/24 05:35:36;;;;;;;8.05;4.93;;;25.80;60.20;;;;;;6151034;27;80960;-58
2023/07/24 05:38:37;;;;;;;6.88;4.40;;;25.70;60.70;;;;;;6154188;27;80322;-59
2023/07/24 05:41:37;;;;;;;8.15;5.18;;;25.60;61.10;;;;;;6159466;27;81615;-58
2023/07/24 05:44:38;;;;;;;6.53;4.20;;;25.60;61.70;;;;;;6154991;27;85671;-59
2023/07/24 05:47:38;;;;;;;9.00;5.60;;;25.60;61.80;;;;;;6153777;27;84891;-57
2023/07/24 05:50:40;;;;;;;8.35;5.30;;;25.60;62.40;;;;;;6156643;27;81830;-63
2023/07/24 05:53:41;;;;;;;9.73;5.88;;;25.60;63.00;;;;;;6163743;27;80569;-59
2023/07/24 05:56:41;;;;;;;11.70;6.40;;;25.70;62.90;;;;;;6145786;27;80827;-60
2023/07/24 05:59:42;;;;;;;9.93;5.40;;;25.70;63.00;;;;;;6152192;27;81085;-58
2023/07/24 06:02:43;;;;;;;7.93;5.03;;;25.70;63.60;;;;;;6151708;27;85047;-59
2023/07/24 06:05:43;;;;;;;8.50;5.22;;;25.70;64.40;;;;;;6160393;27;80928;-59
2023/07/24 06:08:44;;;;;;;8.25;5.30;;;25.70;64.40;;;;;;6159850;27;80603;-59
2023/07/24 06:11:45;;;;;;;9.23;5.00;;;25.70;64.40;;;;;;6158845;27;80373;-59
2023/07/24 06:14:45;;;;;;;8.40;5.47;;;25.70;64.60;;;;;;6152940;27;82199;-58
2023/07/24 06:17:46;;;;;;;9.70;5.78;;;25.80;64.70;;;;;;6144270;27;82456;-60
2023/07/24 06:20:46;;;;;;;9.88;5.88;;;25.90;65.00;;;;;;6158016;27;81759;-60
2023/07/24 06:23:47;;;;;;;9.32;6.05;;;26.00;64.40;;;;;;6161569;27;81497;-59
2023/07/24 06:26:47;;;;;;;7.35;5.32;;;26.00;64.20;;;;;;6151068;27;80457;-61
2023/07/24 06:29:48;;;;;;;8.35;5.78;;;26.00;64.00;;;;;;6164060;27;80966;-59
2023/07/24 06:32:48;;;;;;;9.55;5.20;;;26.00;63.60;;;;;;6108199;27;81925;-54
2023/07/24 06:35:49;;;;;;;14.32;5.90;;;26.00;63.40;;;;;;6086443;27;81981;-55
2023/07/24 06:38:50;;;;;;;9.90;5.90;;;26.10;63.50;;;;;;6150557;27;82303;-59
2023/07/24 06:41:50;;;;;;;13.15;6.57;;;26.10;63.70;;;;;;6173280;27;80786;-57
2023/07/24 06:44:51;;;;;;;10.25;5.82;;;26.10;63.60;;;;;;6143976;27;81902;-57
2023/07/24 06:47:51;;;;;;;10.40;5.43;;;26.10;63.80;;;;;;6152889;27;80260;-58
2023/07/24 06:50:52;;;;;;;9.57;6.30;;;26.20;64.00;;;;;;6170213;27;81446;-59
2023/07/24 06:53:52;;;;;;;13.23;5.80;;;26.20;63.80;;;;;;6163038;27;80687;-58
2023/07/24 06:56:53;;;;;;;10.10;5.80;;;26.20;63.50;;;;;;6170664;27;81308;-58
2023/07/24 06:59:53;;;;;;;12.68;6.13;;;26.20;63.20;;;;;;6161039;27;80719;-58
2023/07/24 07:02:54;;;;;;;9.93;5.90;;;26.20;63.00;;;;;;6167830;27;80300;-58
2023/07/24 07:05:54;;;;;;;11.82;6.28;;;26.30;62.90;;;;;;6155482;27;82298;-55
2023/07/24 07:08:55;;;;;;;10.35;6.45;;;26.30;62.80;;;;;;6152195;27;81264;-59
2023/07/24 07:11:55;;;;;;;10.43;5.65;;;26.40;62.90;;;;;;6150973;27;81068;-58
2023/07/24 07:14:56;;;;;;;9.63;6.50;;;26.40;62.80;;;;;;6151298;27;80703;-58
2023/07/24 07:17:56;;;;;;;31.17;12.55;;;26.50;62.40;;;;;;6149423;27;80450;-59
2023/07/24 07:20:57;;;;;;;15.93;9.18;;;26.50;61.90;;;;;;6149987;27;84837;-61
2023/07/24 07:23:57;;;;;;;12.63;7.32;;;26.50;61.50;;;;;;6161126;27;84176;-60
2023/07/24 07:26:58;;;;;;;12.80;7.10;;;26.50;60.00;;;;;;6164712;27;82820;-60
2023/07/24 07:29:58;;;;;;;15.15;7.75;;;26.60;59.50;;;;;;6179457;27;80855;-60
2023/07/24 07:32:59;;;;;;;12.35;7.03;;;26.60;58.50;;;;;;6148668;27;83454;-60
2023/07/24 07:35:59;;;;;;;17.88;8.63;;;26.60;58.40;;;;;;6152703;27;82644;-59
2023/07/24 07:39:00;;;;;;;24.55;11.07;;;26.70;57.80;;;;;;6159108;27;80996;-59
2023/07/24 07:42:00;;;;;;;15.82;7.57;;;26.70;57.10;;;;;;6150697;27;85779;-60
2023/07/24 07:45:01;;;;;;;19.88;9.50;;;26.70;56.40;;;;;;6148891;27;82014;-58
2023/07/24 07:48:01;;;;;;;30.23;13.10;;;26.70;56.50;;;;;;6154230;27;82257;-58
2023/07/24 07:51:02;;;;;;;21.58;8.50;;;26.80;56.70;;;;;;6166490;27;82854;-59
2023/07/24 07:54:02;;;;;;;17.65;8.02;;;26.80;56.70;;;;;;6163947;27;82713;-58
2023/07/24 07:57:03;;;;;;;10.63;6.80;;;26.80;56.60;;;;;;6144687;27;82308;-59
2023/07/24 08:00:03;;;;;;;12.95;6.72;;;26.80;56.60;;;;;;6163481;27;80795;-60
2023/07/24 08:03:05;;;;;;;8.68;5.35;;;26.80;56.50;;;;;;6155232;27;83141;-60
2023/07/24 08:06:06;;;;;;;9.80;6.05;;;26.80;56.50;;;;;;6166785;27;80400;-59
2023/07/24 08:09:07;;;;;;;9.13;6.15;;;26.80;55.70;;;;;;6153431;27;81262;-59
2023/07/24 08:12:07;;;;;;;10.32;5.97;;;26.80;55.70;;;;;;6163408;27;80602;-58
2023/07/24 08:15:08;;;;;;;9.93;6.10;;;26.80;55.40;;;;;;6170874;27;81510;-59
2023/07/24 08:18:08;;;;;;;10.25;6.07;;;26.90;55.00;;;;;;6149904;27;82427;-58
2023/07/24 08:21:09;;;;;;;9.55;5.38;;;26.90;54.40;;;;;;6165561;27;81104;-59
2023/07/24 08:24:09;;;;;;;9.88;5.78;;;27.00;54.30;;;;;;6141259;27;80576;-59
2023/07/24 08:27:10;;;;;;;10.43;6.40;;;27.00;53.70;;;;;;6149734;27;81073;-59
2023/07/24 08:30:10;;;;;;;10.35;5.88;;;27.00;52.60;;;;;;6150607;27;80681;-61
2023/07/24 08:33:11;;;;;;;10.70;5.95;;;27.10;52.40;;;;;;6169733;27;81732;-67
2023/07/24 08:36:12;;;;;;;9.00;6.25;;;27.10;52.30;;;;;;6169816;27;80910;-67
2023/07/24 08:39:12;;;;;;;9.48;5.72;;;27.20;53.40;;;;;;6156397;27;81481;-67
2023/07/24 08:42:13;;;;;;;13.00;6.20;;;27.30;52.20;;;;;;6159933;27;81372;-66
2023/07/24 08:45:13;;;;;;;13.55;6.13;;;27.40;52.50;;;;;;6155298;27;82734;-65
2023/07/24 08:48:14;;;;;;;12.02;5.93;;;27.40;52.40;;;;;;6175592;27;81101;-65
2023/07/24 08:51:16;;;;;;;13.55;6.35;;;27.50;52.60;;;;;;6177412;27;83664;-59
2023/07/24 08:54:16;;;;;;;9.38;6.10;;;27.60;52.60;;;;;;6164437;27;82913;-60
2023/07/24 08:57:17;;;;;;;11.80;5.90;;;27.60;53.80;;;;;;6152018;27;80225;-58
2023/07/24 09:00:17;;;;;;;8.40;5.80;;;27.60;52.80;;;;;;6166375;27;80498;-58
2023/07/24 09:03:18;;;;;;;9.00;6.38;;;27.60;53.00;;;;;;6173946;27;85296;-56
2023/07/24 09:06:19;;;;;;;16.70;5.95;;;27.60;53.50;;;;;;6159245;27;80930;-57
2023/07/24 09:09:19;;;;;;;10.95;6.53;;;27.70;53.40;;;;;;6162990;27;80899;-60
2023/07/24 09:12:20;;;;;;;9.18;6.20;;;27.70;53.50;;;;;;6164560;27;80712;-58
2023/07/24 09:15:20;;;;;;;15.88;6.03;;;27.70;54.30;;;;;;6168621;27;82559;-58
2023/07/24 09:18:21;;;;;;;10.93;6.10;;;27.70;54.60;;;;;;6170468;27;80864;-54
2023/07/24 09:21:21;;;;;;;13.63;6.88;;;27.70;54.50;;;;;;6157768;27;81442;-57
2023/07/24 09:24:22;;;;;;;14.27;6.07;;;27.70;54.60;;;;;;6165643;27;80111;-59
2023/07/24 09:27:22;;;;;;;9.48;6.55;;;27.70;53.10;;;;;;6162263;27;82416;-59
2023/07/24 09:30:24;;;;;;;12.23;6.32;;;27.80;53.20;;;;;;6162672;27;80337;-61
2023/07/24 09:33:24;;;;;;;12.70;7.05;;;27.90;52.10;;;;;;6156873;27;81471;-63
2023/07/24 09:36:25;;;;;;;12.93;5.78;;;27.80;52.50;;;;;;6164532;27;82793;-64
2023/07/24 09:39:26;;;;;;;14.88;6.95;;;27.90;52.50;;;;;;6156366;27;81005;-67
2023/07/24 09:42:26;;;;;;;11.63;6.80;;;27.90;52.20;;;;;;6161113;27;82384;-70
2023/07/24 09:45:27;;;;;;;11.43;6.80;;;27.90;52.10;;;;;;6170834;27;81113;-68
2023/07/24 09:48:27;;;;;;;10.27;5.85;;;27.90;52.60;;;;;;6163898;27;82367;-67
2023/07/24 09:51:28;;;;;;;12.50;7.50;;;27.90;52.60;;;;;;6170993;27;80686;-73
2023/07/24 09:54:29;;;;;;;8.60;6.50;;;27.90;53.00;;;;;;6160091;27;81182;-70
2023/07/24 09:57:29;;;;;;;9.00;6.80;;;27.80;52.80;;;;;;6161485;27;82727;-72
2023/07/24 10:00:30;;;;;;;8.30;6.45;;;27.80;53.10;;;;;;6160468;27;82887;-69
2023/07/24 10:03:30;;;;;;;9.90;6.70;;;27.80;52.50;;;;;;6145982;27;82762;-71
2023/07/24 10:06:31;;;;;;;12.63;6.93;;;27.90;52.70;;;;;;6154507;27;80427;-61
2023/07/24 10:09:32;;;;;;;11.25;6.72;;;28.00;52.20;;;;;;6161261;27;80874;-60
2023/07/24 10:12:32;;;;;;;10.43;7.10;;;28.00;52.40;;;;;;6149067;27;80384;-60
2023/07/24 10:15:33;;;;;;;13.80;7.57;;;28.10;52.20;;;;;;6162034;27;80463;-60
2023/07/24 10:18:33;;;;;;;11.35;7.13;;;28.10;52.20;;;;;;6146013;27;81309;-59
2023/07/24 10:21:34;;;;;;;9.32;6.63;;;28.10;50.60;;;;;;6164304;27;80318;-60
2023/07/24 10:24:34;;;;;;;14.38;7.25;;;28.00;50.80;;;;;;6144072;27;81381;-60
2023/07/24 10:27:35;;;;;;;17.27;7.68;;;28.00;50.90;;;;;;6174085;27;87443;-60
2023/07/24 10:30:36;;;;;;;12.05;7.30;;;28.00;51.50;;;;;;6165321;27;80479;-59
2023/07/24 10:33:37;;;;;;;13.38;7.10;;;27.90;51.90;;;;;;6170321;27;82148;-60
2023/07/24 10:36:39;;;;;;;11.70;7.00;;;27.80;51.60;;;;;;6159852;27;80435;-60
2023/07/24 10:39:40;;;;;;;15.93;7.18;;;27.80;51.40;;;;;;6164277;27;83633;-60
2023/07/24 10:42:40;;;;;;;13.13;7.82;;;27.80;51.30;;;;;;6166437;27;81781;-60
2023/07/24 10:45:41;;;;;;;11.50;7.57;;;27.80;51.90;;;;;;6159417;27;81327;-58
2023/07/24 10:48:41;;;;;;;11.82;7.85;;;27.80;51.80;;;;;;6168439;27;80324;-62
2023/07/24 10:51:42;;;;;;;12.77;7.88;;;27.80;51.50;;;;;;6156121;27;81768;-60
2023/07/24 10:54:42;;;;;;;15.27;7.68;;;27.80;51.70;;;;;;6165964;27;81775;-60
2023/07/24 10:57:43;;;;;;;17.88;8.13;;;27.90;53.10;;;;;;6171717;27;80555;-60
2023/07/24 11:00:43;;;;;;;13.15;7.43;;;27.80;52.20;;;;;;6158128;27;80545;-61
2023/07/24 11:03:44;;;;;;;17.38;8.90;;;27.80;52.30;;;;;;6165187;27;81058;-60
2023/07/24 11:06:44;;;;;;;16.33;8.52;;;27.80;52.60;;;;;;6160018;27;80648;-60
2023/07/24 11:09:45;;;;;;;15.90;9.02;;;27.70;52.40;;;;;;6156954;27;82669;-63
2023/07/24 11:12:46;;;;;;;12.15;8.20;;;27.70;52.40;;;;;;6160670;27;80718;-60
2023/07/24 11:15:46;;;;;;;11.43;8.00;;;27.70;52.70;;;;;;6167815;27;80489;-59
2023/07/24 11:18:47;;;;;;;11.93;8.07;;;27.70;52.60;;;;;;6162613;27;80291;-64
2023/07/24 11:21:47;;;;;;;12.18;8.38;;;27.70;52.70;;;;;;6163029;27;80828;-64
2023/07/24 11:24:48;;;;;;;15.27;8.63;;;27.70;52.80;;;;;;6170558;27;81188;-64
2023/07/24 11:27:48;;;;;;;17.15;11.00;;;27.70;53.10;;;;;;6164989;27;80561;-64
2023/07/24 11:30:49;;;;;;;23.48;15.18;;;27.70;53.50;;;;;;6170693;27;83846;-65
2023/07/24 11:33:50;;;;;;;26.83;15.10;;;27.70;54.20;;;;;;6162909;27;85351;-63
2023/07/24 11:36:50;;;;;;;22.33;12.82;;;27.60;54.20;;;;;;6170886;27;83657;-59
2023/07/24 11:39:51;;;;;;;24.40;12.43;;;27.70;54.20;;;;;;6182073;27;83035;-65
2023/07/24 11:42:51;;;;;;;27.88;13.30;;;27.70;54.40;;;;;;6152079;27;84426;-62
2023/07/24 11:45:52;;;;;;;21.88;11.70;;;27.70;54.70;;;;;;6146943;27;82934;-64
2023/07/24 11:48:55;;;;;;;53.65;30.25;;;27.70;56.10;;;;;;6150797;27;86836;-52
2023/07/24 11:51:56;;;;;;;66.57;35.85;;;27.70;56.20;;;;;;6156413;27;83319;-61
2023/07/24 11:55:01;;;;;;;70.50;35.22;;;27.70;55.70;;;;;;6152696;27;83463;-64
2023/07/24 11:58:01;;;;;;;59.97;37.00;;;27.70;55.70;;;;;;6148473;27;83712;-60
2023/07/24 12:01:02;;;;;;;69.93;37.63;;;27.70;55.50;;;;;;6154488;27;83970;-61
2023/07/24 12:04:02;;;;;;;63.70;33.67;;;27.70;55.10;;;;;;6160832;27;84417;-60
2023/07/24 12:07:03;;;;;;;43.45;27.98;;;27.70;55.30;;;;;;6166697;27;83678;-59
2023/07/24 12:10:03;;;;;;;46.10;26.33;;;27.70;55.20;;;;;;6159838;27;85075;-60
2023/07/24 12:13:04;;;;;;;40.00;22.83;;;27.80;55.50;;;;;;6160064;27;87535;-61
2023/07/24 12:16:04;;;;;;;38.08;22.48;;;27.80;55.10;;;;;;6151435;27;85083;-61
2023/07/24 12:19:05;;;;;;;29.58;19.02;;;27.80;55.00;;;;;;6154238;27;84223;-60
2023/07/24 12:22:07;;;;;;;28.45;15.75;;;27.80;54.60;;;;;;6170877;27;82852;-60
2023/07/24 12:25:07;;;;;;;25.10;15.80;;;27.80;54.30;;;;;;6169257;27;85566;-60
2023/07/24 12:28:08;;;;;;;20.23;13.38;;;27.90;54.10;;;;;;6190550;27;83237;-64
2023/07/24 12:31:09;;;;;;;22.13;13.10;;;27.80;53.70;;;;;;6182721;27;84540;-61
2023/07/24 12:34:09;;;;;;;16.80;11.18;;;27.80;53.50;;;;;;6150480;27;83679;-62
2023/07/24 12:37:10;;;;;;;19.33;11.10;;;27.80;53.20;;;;;;6136410;27;84820;-63
2023/07/24 12:40:10;;;;;;;16.92;10.30;;;27.80;53.10;;;;;;6149280;27;83962;-60
2023/07/24 12:43:11;;;;;;;16.90;11.43;;;27.80;53.60;;;;;;6148922;27;83578;-60
2023/07/24 12:46:12;;;;;;;16.83;10.68;;;27.80;54.00;;;;;;6159033;27;84088;-62
2023/07/24 12:49:12;;;;;;;16.92;10.77;;;27.80;54.10;;;;;;6162739;27;84049;-61
2023/07/24 12:52:13;;;;;;;14.48;10.25;;;27.80;54.10;;;;;;6159236;27;86568;-68
2023/07/24 12:55:13;;;;;;;16.75;9.70;;;27.80;54.10;;;;;;6166794;27;83241;-69
2023/07/24 12:58:14;;;;;;;18.20;9.38;;;27.70;54.50;;;;;;6157565;27;83106;-69
2023/07/24 13:01:14;;;;;;;16.42;8.60;;;27.70;54.10;;;;;;6174588;27;82949;-66
2023/07/24 13:04:15;;;;;;;18.13;9.57;;;27.70;53.90;;;;;;6171829;27;80867;-65
2023/07/24 13:07:15;;;;;;;13.35;9.10;;;27.80;53.60;;;;;;6161607;27;80748;-63
2023/07/24 13:10:16;;;;;;;13.45;8.30;;;27.80;53.40;;;;;;6170237;27;80689;-61
2023/07/24 13:13:16;;;;;;;19.20;9.32;;;27.80;53.30;;;;;;6162619;27;80972;-61
2023/07/24 13:16:17;;;;;;;17.90;9.23;;;27.80;53.70;;;;;;6160568;27;80910;-63
2023/07/24 13:19:17;;;;;;;14.18;8.05;;;27.80;53.60;;;;;;6164238;27;80792;-62
2023/07/24 13:22:18;;;;;;;15.75;9.30;;;27.80;53.70;;;;;;6162885;27;80912;-62
2023/07/24 13:25:19;;;;;;;15.07;8.48;;;27.80;53.50;;;;;;6148084;27;81244;-62
2023/07/24 13:28:19;;;;;;;17.67;9.55;;;27.90;53.50;;;;;;6155868;27;80919;-60
2023/07/24 13:31:20;;;;;;;12.40;8.52;;;27.90;53.40;;;;;;6174182;27;83205;-60
2023/07/24 13:34:20;;;;;;;17.15;9.85;;;28.00;53.80;;;;;;6145475;27;82883;-58
2023/07/24 13:37:21;;;;;;;13.55;8.98;;;28.00;53.90;;;;;;6161857;27;80593;-61
2023/07/24 13:40:22;;;;;;;15.23;9.30;;;28.00;53.80;;;;;;6149954;27;84328;-58
2023/07/24 13:43:22;;;;;;;13.95;9.20;;;28.10;53.40;;;;;;6159915;27;82305;-60
2023/07/24 13:46:23;;;;;;;16.38;8.20;;;28.10;53.30;;;;;;6170535;27;80999;-59
2023/07/24 13:49:23;;;;;;;15.50;8.90;;;28.10;53.40;;;;;;6164499;27;82244;-59
2023/07/24 13:52:24;;;;;;;15.00;9.05;;;28.10;53.50;;;;;;6159824;27;80658;-59
2023/07/24 13:55:24;;;;;;;12.45;9.32;;;28.10;53.80;;;;;;6160301;27;81895;-59
2023/07/24 13:58:25;;;;;;;13.75;8.63;;;28.10;53.70;;;;;;6168565;27;84647;-61
2023/07/24 14:01:25;;;;;;;13.93;9.13;;;28.10;53.90;;;;;;6172226;27;82518;-61
2023/07/24 14:04:26;;;;;;;16.95;9.98;;;28.10;54.00;;;;;;6183353;27;80519;-60
2023/07/24 14:07:26;;;;;;;13.73;8.35;;;28.10;54.00;;;;;;6178055;27;84664;-61
2023/07/24 14:10:27;;;;;;;14.50;8.85;;;28.10;54.30;;;;;;6160984;27;82963;-62
2023/07/24 14:13:27;;;;;;;13.32;8.57;;;28.10;54.30;;;;;;6175359;27;80360;-60
2023/07/24 14:16:28;;;;;;;15.25;9.27;;;28.10;54.00;;;;;;6155587;27;82458;-60
2023/07/24 14:19:29;;;;;;;18.38;9.63;;;28.10;53.80;;;;;;6165257;27;80633;-60
2023/07/24 14:22:32;;;;;;;15.30;9.40;;;28.20;52.70;;;;;;6156294;27;82934;-66
2023/07/24 14:25:33;;;;;;;13.40;8.75;;;28.30;52.80;;;;;;6172103;27;81043;-70
2023/07/24 14:28:33;;;;;;;14.93;9.18;;;28.30;52.80;;;;;;6181915;27;81280;-67
2023/07/24 14:31:34;;;;;;;14.52;9.70;;;28.40;53.20;;;;;;6155406;27;82719;-69
2023/07/24 14:34:34;;;;;;;15.20;9.07;;;28.40;53.70;;;;;;6168443;27;84203;-69
2023/07/24 14:37:35;;;;;;;16.08;9.55;;;28.40;54.00;;;;;;6163335;27;81508;-69
2023/07/24 14:40:36;;;;;;;14.02;9.93;;;28.40;53.90;;;;;;6170236;27;80575;-68
2023/07/24 14:43:36;;;;;;;15.88;9.70;;;28.50;53.90;;;;;;6154160;27;82747;-66
2023/07/24 14:46:37;;;;;;;16.90;10.02;;;28.50;53.80;;;;;;6168860;27;81832;-67
2023/07/24 14:49:37;;;;;;;13.60;9.43;;;28.60;53.10;;;;;;6168858;27;84325;-67
2023/07/24 14:52:38;;;;;;;12.18;9.13;;;28.50;53.50;;;;;;6160382;27;83317;-68
2023/07/24 14:55:38;;;;;;;16.02;9.27;;;28.50;53.60;;;;;;6166555;27;80946;-68
2023/07/24 14:58:41;;;;;;;16.70;9.30;;;28.50;53.20;;;;;;6160238;27;80960;-65
2023/07/24 15:01:42;;;;;;;13.20;9.55;;;28.50;52.70;;;;;;6164982;27;82698;-65
2023/07/24 15:04:42;;;;;;;19.67;10.98;;;28.50;52.60;;;;;;6164602;27;82641;-64
2023/07/24 15:07:43;;;;;;;14.52;9.32;;;28.50;52.70;;;;;;6159946;27;83170;-68
2023/07/24 15:10:44;;;;;;;15.55;9.50;;;28.50;52.90;;;;;;6175953;27;81778;-67
2023/07/24 15:13:44;;;;;;;15.55;10.00;;;28.50;53.10;;;;;;6163469;27;82667;-66
2023/07/24 15:16:45;;;;;;;13.57;9.23;;;28.40;53.10;;;;;;6161353;27;86127;-59
2023/07/24 15:19:46;;;;;;;14.18;9.48;;;28.40;52.90;;;;;;6148390;27;83083;-60
2023/07/24 15:22:46;;;;;;;17.02;9.73;;;28.50;53.20;;;;;;6175227;27;80987;-60
2023/07/24 15:25:47;;;;;;;15.93;10.65;;;28.40;53.40;;;;;;6167609;27;82385;-60
2023/07/24 15:28:47;;;;;;;19.23;9.57;;;28.40;53.50;;;;;;6147988;27;83377;-60
2023/07/24 15:31:48;;;;;;;15.15;8.63;;;28.40;54.10;;;;;;6206386;27;83010;-59